createdAt,value
2022-09-04T00:02:06.838Z,100500.41
2022-09-04T00:07:20.434Z,100494.38
2022-09-04T00:12:29.204Z,100498.22
2022-09-04T00:17:38.359Z,100501.94
2022-09-04T00:22:52.339Z,100511.66
2022-09-04T00:28:01.952Z,100511.72
2022-09-04T00:33:11.418Z,100515.88
2022-09-04T00:38:21.670Z,100515.06
2022-09-04T00:43:56.986Z,100512.38
2022-09-04T00:49:25.436Z,100513.31
2022-09-04T00:54:42.243Z,100520.47
2022-09-04T01:00:01.580Z,100516.47
2022-09-04T01:05:19.607Z,100540.22
2022-09-04T01:10:36.593Z,100538.72
2022-09-04T01:15:44.451Z,100543.97
2022-09-04T01:21:06.291Z,100535.59
2022-09-04T01:26:16.621Z,100547.22
2022-09-04T01:31:28.019Z,100558.44
2022-09-04T01:36:42.208Z,100552.53
2022-09-04T01:41:54.408Z,100557.34
2022-09-04T01:47:09.927Z,100560.03
2022-09-04T01:52:24.461Z,100562.56
2022-09-04T01:57:35.980Z,100562.69
2022-09-04T02:02:56.502Z,100567.25
2022-09-04T02:08:12.233Z,100574.16
2022-09-04T02:13:23.304Z,100574.19
2022-09-04T02:18:36.089Z,100580.28
2022-09-04T02:23:46.301Z,100586.41
2022-09-04T02:29:00.270Z,100584.03
2022-09-04T02:34:09.454Z,100572.91
2022-09-04T02:39:24.882Z,100571.22
2022-09-04T02:44:40.240Z,100575.63
2022-09-04T02:50:00.037Z,100584.63
2022-09-04T02:55:13.385Z,100580.13
2022-09-04T03:00:21.740Z,100579.44
2022-09-04T03:05:30.224Z,100585.53
2022-09-04T03:10:36.196Z,100580.94
2022-09-04T03:15:46.054Z,100575.66
2022-09-04T03:20:55.185Z,100585.78
2022-09-04T03:26:11.482Z,100574.47
2022-09-04T03:31:27.721Z,100568.25
2022-09-04T03:36:43.606Z,100568.50
2022-09-04T03:41:55.286Z,100570.88
2022-09-04T03:47:10.276Z,100575.19
2022-09-04T03:52:21.119Z,100586.78
2022-09-04T03:57:36.831Z,100585.22
2022-09-04T04:02:55.919Z,100604.81
2022-09-04T04:08:21.449Z,100603.34
2022-09-04T04:13:43.569Z,100629.69
2022-09-04T04:19:10.671Z,100634.88
2022-09-04T04:24:39.099Z,100636.38
2022-09-04T04:30:03.011Z,100638.38
2022-09-04T04:35:18.162Z,100645.22
2022-09-04T04:40:32.349Z,100655.09
2022-09-04T04:45:59.659Z,100660.97
2022-09-04T04:51:15.188Z,100672.03
2022-09-04T04:56:23.638Z,100671.47
2022-09-04T05:01:46.170Z,100673.69
2022-09-04T05:06:57.495Z,100678.63
2022-09-04T05:12:09.079Z,100685.75
2022-09-04T05:17:22.130Z,100694.94
2022-09-04T05:22:35.061Z,100706.31
2022-09-04T05:27:49.524Z,100705.00
2022-09-04T05:32:57.660Z,100705.47
2022-09-04T05:38:09.308Z,100710.38
2022-09-04T05:43:24.553Z,100713.78
2022-09-04T05:48:33.697Z,100720.28
2022-09-04T05:53:51.183Z,100734.91
2022-09-04T05:59:12.186Z,100723.88
2022-09-04T06:04:32.937Z,100740.75
2022-09-04T06:09:47.582Z,100744.50
2022-09-04T06:15:14.267Z,100751.47
2022-09-04T06:20:42.422Z,100765.44
2022-09-04T06:26:02.052Z,100768.34
2022-09-04T06:31:14.486Z,100772.75
2022-09-04T06:36:35.094Z,100775.72
2022-09-04T06:41:55.475Z,100777.56
2022-09-04T06:47:09.969Z,100770.38
2022-09-04T06:52:19.947Z,100774.94
2022-09-04T06:57:39.274Z,100775.69
2022-09-04T07:02:59.368Z,100779.13
2022-09-04T07:08:10.848Z,100783.44
2022-09-04T07:13:42.509Z,100767.50
2022-09-04T07:19:01.361Z,100784.38
2022-09-04T07:24:12.556Z,100788.31
2022-09-04T07:29:35.476Z,100792.56
2022-09-04T07:34:45.844Z,100794.00
2022-09-04T07:39:57.987Z,100793.38
2022-09-04T07:45:06.913Z,100799.84
2022-09-04T07:50:13.950Z,100802.00
2022-09-04T07:55:27.712Z,100808.13
2022-09-04T08:00:39.691Z,100808.03
2022-09-04T08:05:49.280Z,100810.25
2022-09-04T08:11:15.498Z,100823.13
2022-09-04T08:16:28.566Z,100831.81
2022-09-04T08:21:35.392Z,100831.53
2022-09-04T08:26:45.284Z,100834.13
2022-09-04T08:32:03.537Z,100833.59
2022-09-04T08:37:17.389Z,100841.16
2022-09-04T08:42:43.265Z,100849.66
2022-09-04T08:48:37.550Z,100849.22
2022-09-04T08:54:25.370Z,100848.03
2022-09-04T08:59:47.337Z,100847.84
2022-09-04T09:05:18.723Z,100849.44
2022-09-04T09:11:02.205Z,100857.19
2022-09-04T09:16:20.051Z,100848.97
2022-09-04T09:21:39.462Z,100851.28
2022-09-04T09:26:59.296Z,100855.81
2022-09-04T09:32:32.042Z,100851.31
2022-09-04T09:38:13.917Z,100845.59
2022-09-04T09:43:56.630Z,100837.63
2022-09-04T09:49:34.468Z,100847.28
2022-09-04T09:55:07.484Z,100844.50
2022-09-04T10:00:20.362Z,100841.41
2022-09-04T10:05:45.482Z,100845.34
2022-09-04T10:11:13.594Z,100841.31
2022-09-04T10:16:42.768Z,100841.06
2022-09-04T10:22:19.222Z,100836.19
2022-09-04T10:27:49.040Z,100836.53
2022-09-04T10:33:18.749Z,100830.78
2022-09-04T10:38:27.649Z,100836.66
2022-09-04T10:43:58.061Z,100838.41
2022-09-04T10:49:33.782Z,100837.13
2022-09-04T10:54:54.270Z,100836.72
2022-09-04T11:00:07.070Z,100829.31
2022-09-04T11:05:20.859Z,100840.94
2022-09-04T11:10:57.049Z,100843.72
2022-09-04T11:16:19.980Z,100846.56
2022-09-04T11:21:59.092Z,100838.47
2022-09-04T11:27:31.740Z,100821.94
2022-09-04T11:33:11.997Z,100816.59
2022-09-04T11:38:50.042Z,100817.00
2022-09-04T11:44:15.040Z,100815.13
2022-09-04T11:49:43.473Z,100817.56
2022-09-04T11:55:03.218Z,100814.56
2022-09-04T12:00:11.474Z,100812.13
2022-09-04T12:05:43.215Z,100817.56
2022-09-04T12:11:01.078Z,100817.84
2022-09-04T12:16:33.031Z,100815.38
2022-09-04T12:22:17.642Z,100804.75
2022-09-04T12:27:44.242Z,100801.88
2022-09-04T12:33:15.104Z,100798.69
2022-09-04T12:38:39.563Z,100817.06
2022-09-04T12:43:57.289Z,100813.91
2022-09-04T12:49:16.357Z,100820.66
2022-09-04T12:54:33.389Z,100825.19
2022-09-04T12:59:49.980Z,100833.53
2022-09-04T13:05:03.851Z,100830.41
2022-09-04T13:10:20.322Z,100831.38
2022-09-04T13:15:37.559Z,100825.63
2022-09-04T13:20:47.425Z,100826.53
2022-09-04T13:26:04.034Z,100838.44
2022-09-04T13:31:33.600Z,100830.31
2022-09-04T13:36:45.592Z,100839.78
2022-09-04T13:42:10.869Z,100837.88
2022-09-04T13:47:32.543Z,100850.66
2022-09-04T13:52:41.276Z,100846.34
2022-09-04T13:57:47.764Z,100835.78
2022-09-04T14:02:58.162Z,100845.44
2022-09-04T14:08:03.883Z,100836.31
2022-09-04T14:13:19.253Z,100839.88
2022-09-04T14:18:45.544Z,100831.31
2022-09-04T14:24:00.541Z,100838.38
2022-09-04T14:29:15.647Z,100831.78
2022-09-04T14:34:32.052Z,100843.44
2022-09-04T14:39:41.589Z,100831.50
2022-09-04T14:45:01.625Z,100844.63
2022-09-04T14:50:09.534Z,100836.25
2022-09-04T14:55:18.874Z,100844.03
2022-09-04T15:00:24.683Z,100845.66
2022-09-04T15:05:32.092Z,100851.41
2022-09-04T15:10:47.084Z,100856.97
2022-09-04T15:15:54.467Z,100861.84
2022-09-04T15:21:04.310Z,100861.06
2022-09-04T15:26:13.126Z,100857.19
2022-09-04T15:31:18.412Z,100864.88
2022-09-04T15:36:25.362Z,100867.84
2022-09-04T15:41:37.569Z,100865.13
2022-09-04T15:46:47.309Z,100871.59
2022-09-04T15:51:56.196Z,100876.72
2022-09-04T15:57:03.946Z,100866.56
2022-09-04T16:02:20.026Z,100868.53
2022-09-04T16:07:36.739Z,100877.91
2022-09-04T16:12:49.702Z,100875.75
2022-09-04T16:17:54.565Z,100886.63
2022-09-04T16:23:01.605Z,100877.47
2022-09-04T16:28:08.380Z,100873.53
2022-09-04T16:33:28.171Z,100887.31
2022-09-04T16:38:42.227Z,100878.38
2022-09-04T16:44:11.773Z,100882.88
2022-09-04T16:49:22.195Z,100880.66
2022-09-04T16:54:31.803Z,100884.66
2022-09-04T16:59:42.112Z,100890.28
2022-09-04T17:04:49.565Z,100891.88
2022-09-04T17:10:10.397Z,100896.75
2022-09-04T17:15:22.715Z,100902.84
2022-09-04T17:21:26.155Z,100903.16
2022-09-04T17:29:07.929Z,100904.41
2022-09-04T17:31:33.205Z,100902.63
2022-09-04T17:40:44.531Z,100904.53
2022-09-04T17:42:16.405Z,100910.91
2022-09-04T17:47:29.416Z,100916.47
2022-09-04T17:52:34.380Z,100914.50
2022-09-04T17:57:52.449Z,100929.59
2022-09-04T18:03:00.409Z,100928.97
2022-09-04T18:08:11.763Z,100924.75
2022-09-04T18:13:30.408Z,100938.34
2022-09-04T18:18:41.349Z,100932.56
2022-09-04T18:23:51.874Z,100950.84
2022-09-04T18:29:06.140Z,100949.00
2022-09-04T18:37:17.228Z,100957.13
2022-09-04T18:40:06.681Z,100965.66
2022-09-04T18:50:31.177Z,100968.69
2022-09-04T18:51:18.383Z,100968.91
2022-09-04T18:56:20.315Z,100980.94
2022-09-04T19:01:29.596Z,100986.63
2022-09-04T19:06:34.966Z,100986.97
2022-09-04T19:11:46.729Z,101003.06
2022-09-04T19:16:53.689Z,100996.34
2022-09-04T19:22:02.874Z,101001.50
2022-09-04T19:27:27.589Z,101000.69
2022-09-04T19:32:37.346Z,101008.88
2022-09-04T19:41:51.507Z,101010.44
2022-09-04T19:46:19.780Z,101006.72
2022-09-04T19:50:11.197Z,101015.66
2022-09-04T19:54:12.822Z,101017.59
2022-09-04T19:59:22.794Z,101022.38
2022-09-04T20:04:35.177Z,101028.88
2022-09-04T20:09:48.961Z,101031.22
2022-09-04T20:14:55.312Z,101026.38
2022-09-04T20:20:03.715Z,101032.78
2022-09-04T20:25:27.422Z,101045.25
2022-09-04T20:30:31.673Z,101039.97
2022-09-04T20:35:41.928Z,101055.16
2022-09-04T20:40:51.754Z,101052.78
2022-09-04T20:50:14.488Z,101047.59
2022-09-04T20:52:55.060Z,101061.94
2022-09-04T21:00:37.926Z,101050.84
2022-09-04T21:03:19.735Z,101046.94
2022-09-04T21:08:34.488Z,101050.78
2022-09-04T21:13:41.913Z,101052.66
2022-09-04T21:19:27.986Z,101045.97
2022-09-04T21:24:52.219Z,101057.84
2022-09-04T21:30:06.382Z,101063.94
2022-09-04T21:35:16.157Z,101063.75
2022-09-04T21:40:51.949Z,101067.97
2022-09-04T21:46:14.331Z,101074.53
2022-09-04T21:51:37.517Z,101075.75
2022-09-04T22:02:27.186Z,101074.19
2022-09-04T22:02:59.307Z,101069.16
2022-09-04T22:13:34.731Z,101076.19
2022-09-04T22:13:51.132Z,101062.41
2022-09-04T22:19:23.781Z,101072.22
2022-09-04T22:25:05.564Z,101068.13
2022-09-04T22:30:09.570Z,101056.06
2022-09-04T22:35:36.756Z,101059.81
2022-09-04T22:40:56.327Z,101069.03
2022-09-04T22:46:17.519Z,101078.97
2022-09-04T22:51:32.922Z,101072.50
2022-09-04T22:56:50.664Z,101069.13
2022-09-04T23:02:48.167Z,101081.13
2022-09-04T23:13:42.022Z,101084.78
2022-09-04T23:14:07.617Z,101082.75
2022-09-04T23:24:41.099Z,101084.13
2022-09-04T23:26:45.849Z,101083.53
2022-09-04T23:30:56.839Z,101074.63
2022-09-04T23:36:03.587Z,101082.81
2022-09-04T23:41:13.888Z,101083.00
2022-09-04T23:47:04.306Z,101087.94
2022-09-04T23:52:18.887Z,101085.66
2022-09-04T23:57:28.370Z,101090.47
